Billingsville, Indiana
Current Conditions -  °F | °C
As of 1:35 PM on Saturday 25 Oct 2014 (Local Time) from KI67 Reporting Station
Scattered Clouds Scattered Clouds  
Wind Chill: 68°   Ceiling: Unl
Heat Index: 68°   Visibility: 10mi
Dew Point: 55°   Wind: 9mph
Humidity: 64%   Direction: 270°W
Pressure: 29.94"   Gusts: NA
Location:  39.6086°N, 84.9137°W
Report Text: KI67 251735Z AUTO 27008KT 10SM SCT024 20/13 A2994 RMK AO1
Loading
Personal Weather Stations






























Interactive Weather Map New forecast layout! Learn more

10-Day Weather Forecast

Advertisements
Track Severe Weather on mobile